Farewell, Alaska
Current Conditions -  °F | °C
As of 6:56 AM on Friday 21 Nov 2014 (Local Time) from PAFS Reporting Station
Clear Clear  
Wind Chill: 12°   Ceiling: Unl
Heat Index: 23°   Visibility: 10mi
Dew Point: 13°   Wind: 12mph
Humidity: 66%   Direction: 60°ENE
Pressure: 29.1"   Gusts: NA
Location:  62.51°N, 153.89°W
Report Text: PAFS 211556Z AUTO 06010KT 10SM CLR M05/M11 A2910 RMK AO2 TSNO T10501105 SLP865 $
Loading
Personal Weather Stations






























Interactive Weather Map New forecast layout! Learn more

10-Day Weather Forecast

Advertisements
Track Severe Weather on mobile